Time,TemperatureF,DewpointF,PressureIn,WindDirection,WindDirectionDegrees,WindSpeedMPH,WindSpeedGustMPH,Humidity,HourlyPrecipIn,Conditions,Clouds,dailyrainin,SolarRadiationWatts/m^2,SoftwareType,DateUTC
2013-01-26 00:02:00,48.0,47.0,-100.00,SE,132,1.0,15.0,95,0.01,,,0.47,0.000000,,2013-01-26 08:02:00,
2013-01-26 00:11:00,48.0,47.0,-100.00,SE,132,1.0,15.0,95,0.01,,,0.47,0.000000,,2013-01-26 08:11:00,
2013-01-26 00:42:00,50.0,49.0,-100.00,ENE,65,0.0,4.0,95,0.06,,,0.50,0.000000,,2013-01-26 08:42:00,
2013-01-26 00:54:00,50.0,49.0,-100.00,ENE,65,0.0,4.0,95,0.06,,,0.50,0.000000,,2013-01-26 08:54:00,
2013-01-26 01:02:00,50.0,49.0,-100.00,ENE,65,0.0,4.0,95,0.06,,,0.50,0.000000,,2013-01-26 09:02:00,
2013-01-26 01:11:00,50.0,49.0,-100.00,ENE,65,0.0,4.0,95,0.06,,,0.50,0.000000,,2013-01-26 09:11:00,
2013-01-26 01:32:00,50.0,48.0,-100.00,ENE,63,1.0,10.0,94,0.01,,,0.50,0.000000,,2013-01-26 09:32:00,
2013-01-26 01:42:00,50.0,48.0,-100.00,ENE,63,1.0,10.0,94,0.01,,,0.50,0.000000,,2013-01-26 09:42:00,
2013-01-26 01:52:00,50.0,48.0,-100.00,ENE,63,1.0,10.0,94,0.01,,,0.50,0.000000,,2013-01-26 09:52:00,
2013-01-26 02:01:00,50.0,48.0,-100.00,ENE,63,1.0,10.0,94,0.01,,,0.50,0.000000,,2013-01-26 10:01:00,
2013-01-26 02:11:00,50.0,48.0,-100.00,ENE,63,1.0,10.0,94,0.01,,,0.50,0.000000,,2013-01-26 10:11:00,
2013-01-26 02:32:00,49.0,48.0,-100.00,NE,42,8.0,12.0,97,0.04,,,0.54,0.000000,,2013-01-26 10:32:00,
2013-01-26 02:42:00,49.0,48.0,-100.00,NE,42,8.0,12.0,97,0.04,,,0.54,0.000000,,2013-01-26 10:42:00,
2013-01-26 02:52:00,49.0,48.0,-100.00,NE,42,8.0,12.0,97,0.04,,,0.54,0.000000,,2013-01-26 10:52:00,
2013-01-26 03:01:00,49.0,48.0,-100.00,NE,42,8.0,12.0,97,0.04,,,0.54,0.000000,,2013-01-26 11:01:00,
2013-01-26 03:12:00,49.0,48.0,-100.00,NE,42,8.0,12.0,97,0.04,,,0.54,0.000000,,2013-01-26 11:12:00,
2013-01-26 03:32:00,49.0,48.0,-100.00,West,277,0.0,11.0,98,0.00,,,0.54,0.000000,,2013-01-26 11:32:00,
2013-01-26 03:42:00,49.0,48.0,-100.00,West,277,0.0,11.0,98,0.00,,,0.54,0.000000,,2013-01-26 11:42:00,
2013-01-26 03:52:00,49.0,48.0,-100.00,West,277,0.0,11.0,98,0.00,,,0.54,0.000000,,2013-01-26 11:52:00,
2013-01-26 04:01:00,49.0,48.0,-100.00,West,277,0.0,11.0,98,0.00,,,0.54,0.000000,,2013-01-26 12:01:00,
2013-01-26 04:12:00,49.0,48.0,-100.00,West,277,0.0,11.0,98,0.00,,,0.54,0.000000,,2013-01-26 12:12:00,
2013-01-26 04:33:00,47.0,47.0,-100.00,South,190,0.0,6.0,99,0.00,,,0.50,0.000000,,2013-01-26 12:33:00,
2013-01-26 04:42:00,47.0,47.0,-100.00,South,190,0.0,6.0,99,0.00,,,0.50,0.000000,,2013-01-26 12:42:00,
2013-01-26 04:53:00,47.0,47.0,-100.00,South,190,0.0,6.0,99,0.00,,,0.50,0.000000,,2013-01-26 12:53:00,
2013-01-26 05:02:00,47.0,47.0,-100.00,South,190,0.0,6.0,99,0.00,,,0.50,0.000000,,2013-01-26 13:02:00,
2013-01-26 05:12:00,47.0,47.0,-100.00,South,190,0.0,6.0,99,0.00,,,0.50,0.000000,,2013-01-26 13:12:00,
2013-01-26 05:42:00,49.0,49.0,-100.00,South,183,0.0,6.0,99,0.00,,,0.50,0.000000,,2013-01-26 13:42:00,
2013-01-26 05:53:00,49.0,49.0,-100.00,South,183,0.0,6.0,99,0.00,,,0.50,0.000000,,2013-01-26 13:53:00,
2013-01-26 06:02:00,49.0,49.0,-100.00,South,183,0.0,6.0,99,0.00,,,0.50,0.000000,,2013-01-26 14:02:00,
2013-01-26 06:11:00,49.0,49.0,-100.00,South,183,0.0,6.0,99,0.00,,,0.50,0.000000,,2013-01-26 14:11:00,
2013-01-26 06:32:00,49.0,49.0,-100.00,SE,136,0.0,2.0,100,0.00,,,0.49,0.000000,,2013-01-26 14:32:00,
2013-01-26 06:43:00,49.0,49.0,-100.00,SE,136,0.0,2.0,100,0.00,,,0.49,0.000000,,2013-01-26 14:43:00,
2013-01-26 06:53:00,49.0,49.0,-100.00,SE,136,0.0,2.0,100,0.00,,,0.49,0.000000,,2013-01-26 14:53:00,
2013-01-26 07:02:00,49.0,49.0,-100.00,SE,136,0.0,2.0,100,0.00,,,0.49,0.000000,,2013-01-26 15:02:00,
2013-01-26 07:12:00,49.0,49.0,-100.00,SE,136,0.0,2.0,100,0.00,,,0.49,0.000000,,2013-01-26 15:12:00,
2013-01-26 07:33:00,48.0,48.0,-100.00,WSW,237,2.0,5.0,100,0.00,,,-99.99,1.000000,,2013-01-26 15:33:00,
2013-01-26 07:43:00,48.0,48.0,-100.00,WSW,237,2.0,5.0,100,0.00,,,-99.99,1.000000,,2013-01-26 15:43:00,
2013-01-26 07:52:00,48.0,48.0,-100.00,WSW,237,2.0,5.0,100,0.00,,,-99.99,1.000000,,2013-01-26 15:52:00,
2013-01-26 08:01:00,48.0,48.0,-100.00,WSW,237,2.0,5.0,100,0.00,,,-99.99,1.000000,,2013-01-26 16:01:00,
2013-01-26 08:11:00,48.0,48.0,-100.00,WSW,237,2.0,5.0,100,0.00,,,-99.99,1.000000,,2013-01-26 16:11:00,
2013-01-26 08:33:00,50.0,50.0,-100.00,SSW,195,2.0,6.0,100,0.00,,,-99.99,48.000000,,2013-01-26 16:33:00,
2013-01-26 08:43:00,50.0,50.0,-100.00,SSW,195,2.0,6.0,100,0.00,,,-99.99,48.000000,,2013-01-26 16:43:00,
2013-01-26 08:53:00,50.0,50.0,-100.00,SSW,195,2.0,6.0,100,0.00,,,-99.99,48.000000,,2013-01-26 16:53:00,
2013-01-26 09:03:00,50.0,50.0,-100.00,SSW,195,2.0,6.0,100,0.00,,,-99.99,48.000000,,2013-01-26 17:03:00,
2013-01-26 09:12:00,50.0,50.0,-100.00,SSW,195,2.0,6.0,100,0.00,,,-99.99,48.000000,,2013-01-26 17:12:00,
2013-01-26 09:33:00,49.0,49.0,-100.00,South,191,4.0,8.0,100,0.00,,,0.37,120.000000,,2013-01-26 17:33:00,
2013-01-26 09:42:00,49.0,49.0,-100.00,South,191,4.0,8.0,100,0.00,,,0.37,120.000000,,2013-01-26 17:42:00,
2013-01-26 09:53:00,49.0,49.0,-100.00,South,191,4.0,8.0,100,0.00,,,0.37,120.000000,,2013-01-26 17:53:00,
2013-01-26 10:02:00,49.0,49.0,-100.00,South,191,4.0,8.0,100,0.00,,,0.37,120.000000,,2013-01-26 18:02:00,
2013-01-26 10:11:00,49.0,49.0,-100.00,South,191,4.0,8.0,100,0.00,,,0.37,120.000000,,2013-01-26 18:11:00,
2013-01-26 10:42:00,50.0,50.0,-100.00,SW,226,3.0,9.0,100,0.01,,,0.36,89.000000,,2013-01-26 18:42:00,
2013-01-26 10:52:00,50.0,50.0,-100.00,SW,226,3.0,9.0,100,0.01,,,0.36,89.000000,,2013-01-26 18:52:00,
2013-01-26 11:03:00,50.0,50.0,-100.00,SW,226,3.0,9.0,100,0.01,,,0.36,89.000000,,2013-01-26 19:03:00,
2013-01-26 11:11:00,50.0,50.0,-100.00,SW,226,3.0,9.0,100,0.01,,,0.36,89.000000,,2013-01-26 19:11:00,
2013-01-26 11:33:00,52.0,50.0,-100.00,WSW,237,6.0,12.0,92,0.00,,,0.36,292.000000,,2013-01-26 19:33:00,
2013-01-26 11:42:00,52.0,50.0,-100.00,WSW,237,6.0,12.0,92,0.00,,,0.36,292.000000,,2013-01-26 19:42:00,
2013-01-26 11:52:00,52.0,50.0,-100.00,WSW,237,6.0,12.0,92,0.00,,,0.36,292.000000,,2013-01-26 19:52:00,
2013-01-26 12:02:00,52.0,50.0,-100.00,WSW,237,6.0,12.0,92,0.00,,,0.36,292.000000,,2013-01-26 20:02:00,
2013-01-26 12:11:00,52.0,50.0,-100.00,WSW,237,6.0,12.0,92,0.00,,,0.36,292.000000,,2013-01-26 20:11:00,
2013-01-26 12:32:00,52.0,50.0,-100.00,West,276,6.0,10.0,93,0.00,,,0.35,268.000000,,2013-01-26 20:32:00,
2013-01-26 12:42:00,52.0,50.0,-100.00,West,276,6.0,10.0,93,0.00,,,0.35,268.000000,,2013-01-26 20:42:00,
2013-01-26 12:52:00,52.0,50.0,-100.00,West,276,6.0,10.0,93,0.00,,,0.35,268.000000,,2013-01-26 20:52:00,
2013-01-26 13:02:00,52.0,50.0,-100.00,West,276,6.0,10.0,93,0.00,,,0.35,268.000000,,2013-01-26 21:02:00,
2013-01-26 13:12:00,52.0,50.0,-100.00,West,276,6.0,10.0,93,0.00,,,0.35,268.000000,,2013-01-26 21:12:00,
2013-01-26 13:32:00,52.0,50.0,-100.00,SSW,192,8.0,12.0,93,0.00,,,0.34,359.000000,,2013-01-26 21:32:00,
2013-01-26 13:43:00,52.0,50.0,-100.00,SSW,192,8.0,12.0,93,0.00,,,0.34,359.000000,,2013-01-26 21:43:00,
2013-01-26 13:52:00,52.0,50.0,-100.00,SSW,192,8.0,12.0,93,0.00,,,0.34,359.000000,,2013-01-26 21:52:00,
2013-01-26 14:01:00,52.0,50.0,-100.00,SSW,192,8.0,12.0,93,0.00,,,0.34,359.000000,,2013-01-26 22:01:00,
2013-01-26 14:11:00,52.0,50.0,-100.00,SSW,192,8.0,12.0,93,0.00,,,0.34,359.000000,,2013-01-26 22:11:00,
2013-01-26 14:42:00,51.0,50.0,-100.00,SSW,197,5.0,11.0,96,0.00,,,0.33,91.000000,,2013-01-26 22:42:00,
2013-01-26 14:52:00,51.0,50.0,-100.00,SSW,197,5.0,11.0,96,0.00,,,0.33,91.000000,,2013-01-26 22:52:00,
2013-01-26 15:01:00,51.0,50.0,-100.00,SSW,197,5.0,11.0,96,0.00,,,0.33,91.000000,,2013-01-26 23:01:00,
2013-01-26 15:11:00,51.0,50.0,-100.00,SSW,197,5.0,11.0,96,0.00,,,0.33,91.000000,,2013-01-26 23:11:00,
2013-01-26 15:33:00,49.0,49.0,-100.00,SSW,204,4.0,12.0,99,0.00,,,0.31,47.000000,,2013-01-26 23:33:00,
2013-01-26 15:42:00,49.0,49.0,-100.00,SSW,204,4.0,12.0,99,0.00,,,0.31,47.000000,,2013-01-26 23:42:00,
2013-01-26 15:52:00,49.0,49.0,-100.00,SSW,204,4.0,12.0,99,0.00,,,0.31,47.000000,,2013-01-26 23:52:00,
2013-01-26 16:02:00,49.0,49.0,-100.00,SSW,204,4.0,12.0,99,0.00,,,0.31,47.000000,,2013-01-27 00:02:00,
2013-01-26 16:11:00,49.0,49.0,-100.00,SSW,204,4.0,12.0,99,0.00,,,0.31,47.000000,,2013-01-27 00:11:00,
2013-01-26 16:32:00,51.0,51.0,-100.00,SW,232,4.0,11.0,100,0.00,,,0.30,63.000000,,2013-01-27 00:32:00,
2013-01-26 16:42:00,51.0,51.0,-100.00,SW,232,4.0,11.0,100,0.00,,,0.30,63.000000,,2013-01-27 00:42:00,
2013-01-26 16:52:00,51.0,51.0,-100.00,SW,232,4.0,11.0,100,0.00,,,0.30,63.000000,,2013-01-27 00:52:00,
2013-01-26 17:01:00,51.0,51.0,-100.00,SW,232,4.0,11.0,100,0.00,,,0.30,63.000000,,2013-01-27 01:01:00,
2013-01-26 17:11:00,51.0,51.0,-100.00,SW,232,4.0,11.0,100,0.00,,,0.30,63.000000,,2013-01-27 01:11:00,
2013-01-26 17:32:00,50.0,50.0,-100.00,WSW,240,10.0,17.0,100,0.09,,,0.38,4.000000,,2013-01-27 01:32:00,
2013-01-26 17:42:00,50.0,50.0,-100.00,WSW,240,10.0,17.0,100,0.09,,,0.38,4.000000,,2013-01-27 01:42:00,
2013-01-26 17:52:00,50.0,50.0,-100.00,WSW,240,10.0,17.0,100,0.09,,,0.38,4.000000,,2013-01-27 01:52:00,
2013-01-26 18:01:00,50.0,50.0,-100.00,WSW,240,10.0,17.0,100,0.09,,,0.38,4.000000,,2013-01-27 02:01:00,
2013-01-26 18:11:00,50.0,50.0,-100.00,WSW,240,10.0,17.0,100,0.09,,,0.38,4.000000,,2013-01-27 02:11:00,
2013-01-26 18:42:00,48.0,48.0,-100.00,SSW,203,5.0,16.0,100,0.03,,,0.37,0.000000,,2013-01-27 02:42:00,
2013-01-26 18:52:00,48.0,48.0,-100.00,SSW,203,5.0,16.0,100,0.03,,,0.37,0.000000,,2013-01-27 02:52:00,
2013-01-26 19:01:00,48.0,48.0,-100.00,SSW,203,5.0,16.0,100,0.03,,,0.37,0.000000,,2013-01-27 03:01:00,
2013-01-26 19:11:00,48.0,48.0,-100.00,SSW,203,5.0,16.0,100,0.03,,,0.37,0.000000,,2013-01-27 03:11:00,
2013-01-26 19:32:00,48.0,48.0,-100.00,SSW,198,5.0,15.0,100,0.00,,,0.33,0.000000,,2013-01-27 03:32:00,
2013-01-26 19:42:00,48.0,48.0,-100.00,SSW,198,5.0,15.0,100,0.00,,,0.33,0.000000,,2013-01-27 03:42:00,
2013-01-26 19:52:00,48.0,48.0,-100.00,SSW,198,5.0,15.0,100,0.00,,,0.33,0.000000,,2013-01-27 03:52:00,
2013-01-26 20:01:00,48.0,48.0,-100.00,SSW,198,5.0,15.0,100,0.00,,,0.33,0.000000,,2013-01-27 04:01:00,
2013-01-26 20:11:00,48.0,48.0,-100.00,SSW,198,5.0,15.0,100,0.00,,,0.33,0.000000,,2013-01-27 04:11:00,
2013-01-26 20:32:00,49.0,49.0,-100.00,SSW,195,5.0,9.0,100,0.00,,,0.31,0.000000,,2013-01-27 04:32:00,
2013-01-26 20:42:00,49.0,49.0,-100.00,SSW,195,5.0,9.0,100,0.00,,,0.31,0.000000,,2013-01-27 04:42:00,
2013-01-26 20:52:00,49.0,49.0,-100.00,SSW,195,5.0,9.0,100,0.00,,,0.31,0.000000,,2013-01-27 04:52:00,
2013-01-26 21:03:00,49.0,49.0,-100.00,SSW,195,5.0,9.0,100,0.00,,,0.31,0.000000,,2013-01-27 05:03:00,
2013-01-26 21:11:00,49.0,49.0,-100.00,SSW,195,5.0,9.0,100,0.00,,,0.31,0.000000,,2013-01-27 05:11:00,
2013-01-26 21:32:00,49.0,49.0,-100.00,SSW,194,5.0,11.0,100,0.00,,,0.30,0.000000,,2013-01-27 05:32:00,
2013-01-26 21:42:00,49.0,49.0,-100.00,SSW,194,5.0,11.0,100,0.00,,,0.30,0.000000,,2013-01-27 05:42:00,
2013-01-26 21:52:00,49.0,49.0,-100.00,SSW,194,5.0,11.0,100,0.00,,,0.30,0.000000,,2013-01-27 05:52:00,
2013-01-26 22:01:00,49.0,49.0,-100.00,SSW,194,5.0,11.0,100,0.00,,,0.30,0.000000,,2013-01-27 06:01:00,
2013-01-26 22:11:00,49.0,49.0,-100.00,SSW,194,5.0,11.0,100,0.00,,,0.30,0.000000,,2013-01-27 06:11:00,
2013-01-26 22:32:00,47.0,47.0,-100.00,South,189,7.0,13.0,100,0.01,,,0.26,0.000000,,2013-01-27 06:32:00,
2013-01-26 22:42:00,47.0,47.0,-100.00,South,189,7.0,13.0,100,0.01,,,0.26,0.000000,,2013-01-27 06:42:00,
2013-01-26 22:52:00,47.0,47.0,-100.00,South,189,7.0,13.0,100,0.01,,,0.26,0.000000,,2013-01-27 06:52:00,
2013-01-26 23:01:00,47.0,47.0,-100.00,South,189,7.0,13.0,100,0.01,,,0.26,0.000000,,2013-01-27 07:01:00,
2013-01-26 23:13:00,47.0,47.0,-100.00,South,189,7.0,13.0,100,0.01,,,0.26,0.000000,,2013-01-27 07:13:00,
2013-01-26 23:32:00,46.0,46.0,-100.00,SSW,194,9.0,14.0,100,0.00,,,0.25,0.000000,,2013-01-27 07:32:00,
2013-01-26 23:42:00,46.0,46.0,-100.00,SSW,194,9.0,14.0,100,0.00,,,0.25,0.000000,,2013-01-27 07:42:00,
2013-01-26 23:52:00,46.0,46.0,-100.00,SSW,194,9.0,14.0,100,0.00,,,0.25,0.000000,,2013-01-27 07:52:00,